createdAt,value
2022-08-31T00:01:52.485Z,43.64
2022-08-31T00:04:19.808Z,45.06
2022-08-31T00:06:54.005Z,44.90
2022-08-31T00:09:21.163Z,44.59
2022-08-31T00:11:47.724Z,46.04
2022-08-31T00:14:14.729Z,45.62
2022-08-31T00:16:44.316Z,46.86
2022-08-31T00:19:11.197Z,46.46
2022-08-31T00:21:39.184Z,45.67
2022-08-31T00:24:05.980Z,47.15
2022-08-31T00:26:32.597Z,45.84
2022-08-31T00:28:59.538Z,46.35
2022-08-31T00:31:26.146Z,44.09
2022-08-31T00:33:52.971Z,43.36
2022-08-31T00:36:22.550Z,42.82
2022-08-31T00:38:49.549Z,42.81
2022-08-31T00:41:19.397Z,43.51
2022-08-31T00:43:53.890Z,45.00
2022-08-31T00:46:23.686Z,45.52
2022-08-31T00:49:04.493Z,47.49
2022-08-31T00:51:34.105Z,48.27
2022-08-31T00:54:00.747Z,49.47
2022-08-31T00:56:27.689Z,48.95
2022-08-31T00:58:55.139Z,47.76
2022-08-31T01:01:22.602Z,48.03
2022-08-31T01:03:49.833Z,47.96
2022-08-31T01:06:17.713Z,49.22
2022-08-31T01:08:45.027Z,49.69
2022-08-31T01:11:12.096Z,49.84
2022-08-31T01:13:38.765Z,50.29
2022-08-31T01:16:09.116Z,50.55
2022-08-31T01:18:35.964Z,49.14
2022-08-31T01:21:23.482Z,48.83
2022-08-31T01:23:50.355Z,48.95
2022-08-31T01:26:19.295Z,50.32
2022-08-31T01:28:47.051Z,50.27
2022-08-31T01:31:21.159Z,51.66
2022-08-31T01:33:48.002Z,52.72
2022-08-31T01:36:16.307Z,53.58
2022-08-31T01:38:43.854Z,56.39
2022-08-31T01:41:10.511Z,55.61
2022-08-31T01:43:39.822Z,56.09
2022-08-31T01:46:09.525Z,56.55
2022-08-31T01:48:41.343Z,57.39
2022-08-31T01:51:09.122Z,57.60
2022-08-31T01:53:42.114Z,57.71
2022-08-31T01:56:14.672Z,58.67
2022-08-31T01:58:41.435Z,58.40
2022-08-31T02:01:36.029Z,58.03
2022-08-31T02:04:05.254Z,58.40
2022-08-31T02:06:32.412Z,58.58
2022-08-31T02:08:59.570Z,58.00
2022-08-31T02:11:26.188Z,60.73
2022-08-31T02:13:52.820Z,59.97
2022-08-31T02:16:19.585Z,60.50
2022-08-31T02:18:46.271Z,59.73
2022-08-31T02:21:13.636Z,58.89
2022-08-31T02:23:41.796Z,59.74
2022-08-31T02:26:09.017Z,60.98
2022-08-31T02:28:35.878Z,60.18
2022-08-31T02:31:02.792Z,61.03
2022-08-31T02:33:34.193Z,60.42
2022-08-31T02:36:00.939Z,59.62
2022-08-31T02:38:27.620Z,59.92
2022-08-31T02:40:54.233Z,60.05
2022-08-31T02:43:24.511Z,60.61
2022-08-31T02:45:53.491Z,60.99
2022-08-31T02:48:25.119Z,60.61
2022-08-31T02:50:53.604Z,60.02
2022-08-31T02:53:22.502Z,60.68
2022-08-31T02:55:49.709Z,61.45
2022-08-31T02:58:19.594Z,60.61
2022-08-31T03:00:48.691Z,60.21
2022-08-31T03:03:16.792Z,59.95
2022-08-31T03:05:44.702Z,60.70
2022-08-31T03:08:11.464Z,59.96
2022-08-31T03:10:38.374Z,60.46
2022-08-31T03:13:05.492Z,60.13
2022-08-31T03:15:32.258Z,59.97
2022-08-31T03:18:01.796Z,60.14
2022-08-31T03:20:33.653Z,60.56
2022-08-31T03:23:01.731Z,60.16
2022-08-31T03:25:29.811Z,60.14
2022-08-31T03:27:56.808Z,59.85
2022-08-31T03:30:23.910Z,59.68
2022-08-31T03:33:02.558Z,59.71
2022-08-31T03:35:31.075Z,59.84
2022-08-31T03:37:57.997Z,60.20
2022-08-31T03:40:24.923Z,59.82
2022-08-31T03:42:51.648Z,59.90
2022-08-31T03:45:18.261Z,59.69
2022-08-31T03:47:45.773Z,59.72
2022-08-31T03:50:15.958Z,59.77
2022-08-31T03:52:56.842Z,60.08
2022-08-31T03:55:23.588Z,60.32
2022-08-31T03:57:51.424Z,60.18
2022-08-31T04:00:18.887Z,60.30
2022-08-31T04:02:53.178Z,60.29
2022-08-31T04:05:35.479Z,60.27
2022-08-31T04:08:14.857Z,60.14
2022-08-31T04:10:46.439Z,60.17
2022-08-31T04:13:31.414Z,60.29
2022-08-31T04:16:27.101Z,60.35
2022-08-31T04:19:03.634Z,60.56
2022-08-31T04:21:38.533Z,60.55
2022-08-31T04:24:07.815Z,61.07
2022-08-31T04:26:37.161Z,60.64
2022-08-31T04:29:08.595Z,61.18
2022-08-31T04:31:38.121Z,61.50
2022-08-31T04:34:05.753Z,61.10
2022-08-31T04:36:32.469Z,60.91
2022-08-31T04:39:01.267Z,60.68
2022-08-31T04:41:29.476Z,60.62
2022-08-31T04:43:57.760Z,60.53
2022-08-31T04:46:25.384Z,60.49
2022-08-31T04:48:53.206Z,61.05
2022-08-31T04:51:26.504Z,61.07
2022-08-31T04:53:53.653Z,62.04
2022-08-31T04:56:26.283Z,61.03
2022-08-31T04:58:56.579Z,60.76
2022-08-31T05:01:28.026Z,60.33
2022-08-31T05:04:36.928Z,60.41
2022-08-31T05:07:03.803Z,61.57
2022-08-31T05:09:31.003Z,62.17
2022-08-31T05:11:57.939Z,61.89
2022-08-31T05:14:25.542Z,61.58
2022-08-31T05:17:03.193Z,60.92
2022-08-31T05:19:32.301Z,60.90
2022-08-31T05:21:59.229Z,60.70
2022-08-31T05:24:26.167Z,60.62
2022-08-31T05:26:56.053Z,61.36
2022-08-31T05:29:24.840Z,61.25
2022-08-31T05:32:01.512Z,61.80
2022-08-31T05:34:28.122Z,61.81
2022-08-31T05:36:56.545Z,62.51
2022-08-31T05:39:24.057Z,61.84
2022-08-31T05:41:50.691Z,62.76
2022-08-31T05:44:19.841Z,64.88
2022-08-31T05:46:52.238Z,64.29
2022-08-31T05:49:24.132Z,63.66
2022-08-31T05:51:55.127Z,64.11
2022-08-31T05:54:22.173Z,63.99
2022-08-31T05:56:48.815Z,63.81
2022-08-31T05:59:16.013Z,63.89
2022-08-31T06:01:42.755Z,63.61
2022-08-31T06:04:12.400Z,63.54
2022-08-31T06:06:39.380Z,63.08
2022-08-31T06:09:07.465Z,63.11
2022-08-31T06:11:34.825Z,63.55
2022-08-31T06:14:03.094Z,63.50
2022-08-31T06:16:32.284Z,63.71
2022-08-31T06:19:03.283Z,63.10
2022-08-31T06:21:33.526Z,62.85
2022-08-31T06:24:01.028Z,62.92
2022-08-31T06:26:30.376Z,63.47
2022-08-31T06:29:00.468Z,63.50
2022-08-31T06:31:32.885Z,63.49
2022-08-31T06:34:01.487Z,62.41
2022-08-31T06:36:48.233Z,62.58
2022-08-31T06:39:21.546Z,62.34
2022-08-31T06:41:56.815Z,61.88
2022-08-31T06:44:32.941Z,62.95
2022-08-31T06:47:23.857Z,62.21
2022-08-31T06:49:50.979Z,61.78
2022-08-31T06:52:18.000Z,62.54
2022-08-31T06:54:50.442Z,61.77
2022-08-31T06:57:49.435Z,60.93
2022-08-31T07:00:38.808Z,60.52
2022-08-31T07:03:23.220Z,59.17
2022-08-31T07:05:52.346Z,59.90
2022-08-31T07:08:20.193Z,57.99
2022-08-31T07:10:47.467Z,58.65
2022-08-31T07:13:14.461Z,56.78
2022-08-31T07:15:41.231Z,57.41
2022-08-31T07:18:10.426Z,56.84
2022-08-31T07:20:37.494Z,55.87
2022-08-31T07:23:07.430Z,55.10
2022-08-31T07:25:39.447Z,55.26
2022-08-31T07:28:06.276Z,55.45
2022-08-31T07:30:36.973Z,53.06
2022-08-31T07:33:06.097Z,52.70
2022-08-31T07:35:34.932Z,54.28
2022-08-31T07:38:34.033Z,52.61
2022-08-31T07:41:19.196Z,53.57
2022-08-31T07:43:46.596Z,53.18
2022-08-31T07:46:14.794Z,52.66
2022-08-31T07:48:41.498Z,51.93
2022-08-31T07:51:26.120Z,51.70
2022-08-31T07:54:07.976Z,51.83
2022-08-31T07:57:03.221Z,51.46
2022-08-31T07:59:33.056Z,52.58
2022-08-31T08:02:04.763Z,50.90
2022-08-31T08:04:31.991Z,50.93
2022-08-31T08:07:18.336Z,51.35
2022-08-31T08:10:18.280Z,50.13
2022-08-31T08:12:57.145Z,50.42
2022-08-31T08:15:44.684Z,50.71
2022-08-31T08:18:25.118Z,50.03
2022-08-31T08:20:55.413Z,51.52
2022-08-31T08:23:27.685Z,52.42
2022-08-31T08:26:21.255Z,52.21
2022-08-31T08:29:06.351Z,54.51
2022-08-31T08:31:36.523Z,53.99
2022-08-31T08:34:03.328Z,53.52
2022-08-31T08:36:37.279Z,54.00
2022-08-31T08:39:06.450Z,53.36
2022-08-31T08:41:35.212Z,54.21
2022-08-31T08:44:03.968Z,54.14
2022-08-31T08:46:40.500Z,53.31
2022-08-31T08:49:28.369Z,54.29
2022-08-31T08:51:59.763Z,53.25
2022-08-31T08:54:31.985Z,52.27
2022-08-31T08:57:01.648Z,51.88
2022-08-31T08:59:28.768Z,53.46
2022-08-31T09:02:06.341Z,52.32
2022-08-31T09:04:49.993Z,51.98
2022-08-31T09:07:44.783Z,51.53
2022-08-31T09:10:34.715Z,51.43
2022-08-31T09:13:23.581Z,50.56
2022-08-31T09:15:56.698Z,51.30
2022-08-31T09:18:57.723Z,52.94
2022-08-31T09:21:34.419Z,51.09
2022-08-31T09:24:02.182Z,49.80
2022-08-31T09:26:57.977Z,50.16
2022-08-31T09:29:33.753Z,49.96
2022-08-31T09:32:09.958Z,50.23
2022-08-31T09:34:40.048Z,51.00
2022-08-31T09:37:16.432Z,48.64
2022-08-31T09:39:48.595Z,49.82
2022-08-31T09:42:31.208Z,48.16
2022-08-31T09:45:18.436Z,50.01
2022-08-31T09:47:51.282Z,49.33
2022-08-31T09:50:45.430Z,49.09
2022-08-31T09:53:43.307Z,50.02
2022-08-31T09:56:17.926Z,47.57
2022-08-31T09:59:02.653Z,50.05
2022-08-31T10:01:45.524Z,49.12
2022-08-31T10:04:12.314Z,48.92
2022-08-31T10:06:48.274Z,50.13
2022-08-31T10:09:30.394Z,51.27
2022-08-31T10:11:59.744Z,48.91
2022-08-31T10:14:41.284Z,50.04
2022-08-31T10:17:15.194Z,49.27
2022-08-31T10:19:51.653Z,49.79
2022-08-31T10:22:28.305Z,50.16
2022-08-31T10:25:04.763Z,48.85
2022-08-31T10:27:40.389Z,49.30
2022-08-31T10:30:23.861Z,49.45
2022-08-31T10:33:01.503Z,50.86
2022-08-31T10:35:54.678Z,49.30
2022-08-31T10:38:37.504Z,48.78
2022-08-31T10:41:11.173Z,49.42
2022-08-31T10:43:49.254Z,49.14
2022-08-31T10:46:16.408Z,49.82
2022-08-31T10:48:55.022Z,49.74
2022-08-31T10:51:49.132Z,50.92
2022-08-31T10:54:28.733Z,51.84
2022-08-31T10:57:22.376Z,51.76
2022-08-31T10:59:58.219Z,53.63
2022-08-31T11:02:29.204Z,55.44
2022-08-31T11:05:07.924Z,57.38
2022-08-31T11:07:47.282Z,56.56
2022-08-31T11:10:19.970Z,58.76
2022-08-31T11:12:57.474Z,59.96
2022-08-31T11:15:36.006Z,58.84
2022-08-31T11:18:39.903Z,59.36
2022-08-31T11:21:35.396Z,60.37
2022-08-31T11:24:23.876Z,62.28
2022-08-31T11:27:11.841Z,62.71
2022-08-31T11:30:16.346Z,62.64
2022-08-31T11:32:47.720Z,62.68
2022-08-31T11:35:15.576Z,63.00
2022-08-31T11:37:46.716Z,62.15
2022-08-31T11:40:14.405Z,62.00
2022-08-31T11:42:40.908Z,62.37
2022-08-31T11:45:28.825Z,62.82
2022-08-31T11:47:56.990Z,61.80
2022-08-31T11:50:27.753Z,63.28
2022-08-31T11:52:55.239Z,61.63
2022-08-31T11:55:26.997Z,63.97
2022-08-31T11:58:11.734Z,62.95
2022-08-31T12:01:03.544Z,63.57
2022-08-31T12:03:53.840Z,62.15
2022-08-31T12:06:29.617Z,63.57
2022-08-31T12:09:02.320Z,60.75
2022-08-31T12:11:41.803Z,58.61
2022-08-31T12:14:19.141Z,61.85
2022-08-31T12:17:09.698Z,60.55
2022-08-31T12:20:12.601Z,58.11
2022-08-31T12:23:06.169Z,55.15
2022-08-31T12:25:52.661Z,55.23
2022-08-31T12:28:27.510Z,54.95
2022-08-31T12:30:58.743Z,53.21
2022-08-31T12:33:27.976Z,52.29
2022-08-31T12:35:58.267Z,56.20
2022-08-31T12:38:30.227Z,54.94
2022-08-31T12:40:57.564Z,52.84
2022-08-31T12:43:27.876Z,51.38
2022-08-31T12:46:07.061Z,50.48
2022-08-31T12:48:51.497Z,52.35
2022-08-31T12:51:43.139Z,52.95
2022-08-31T12:54:18.921Z,53.63
2022-08-31T12:56:56.298Z,52.16
2022-08-31T12:59:56.937Z,52.76
2022-08-31T13:02:20.488Z,49.36
2022-08-31T13:04:48.240Z,51.36
2022-08-31T13:07:20.195Z,51.65
2022-08-31T13:09:46.852Z,51.02
2022-08-31T13:12:23.209Z,51.51
2022-08-31T13:14:49.782Z,51.70
2022-08-31T13:17:21.901Z,52.03
2022-08-31T13:19:52.885Z,50.99
2022-08-31T13:22:30.021Z,51.62
2022-08-31T13:25:10.739Z,49.57
2022-08-31T13:27:39.339Z,50.25
2022-08-31T13:30:18.946Z,49.10
2022-08-31T13:32:49.727Z,48.35
2022-08-31T13:35:20.064Z,45.91
2022-08-31T13:38:04.920Z,46.48
2022-08-31T13:40:37.325Z,46.06
2022-08-31T13:43:06.555Z,47.09
2022-08-31T13:45:47.381Z,45.99
2022-08-31T13:48:25.665Z,47.42
2022-08-31T13:50:59.707Z,43.89
2022-08-31T13:53:52.504Z,46.56
2022-08-31T13:56:47.767Z,45.69
2022-08-31T13:59:23.075Z,44.49
2022-08-31T14:02:15.500Z,47.50
2022-08-31T14:04:51.106Z,44.74
2022-08-31T14:07:21.459Z,43.53
2022-08-31T14:10:04.354Z,45.79
2022-08-31T14:12:37.021Z,46.32
2022-08-31T14:15:17.940Z,44.73
2022-08-31T14:20:44.151Z,45.23
2022-08-31T14:23:26.150Z,41.25
2022-08-31T14:25:57.921Z,41.56
2022-08-31T14:28:33.732Z,41.69
2022-08-31T14:31:12.182Z,43.90
2022-08-31T14:33:40.283Z,41.25
2022-08-31T14:36:14.459Z,42.17
2022-08-31T14:38:42.857Z,43.15
2022-08-31T14:41:12.621Z,42.27
2022-08-31T14:43:43.197Z,42.13
2022-08-31T14:46:11.094Z,43.08
2022-08-31T14:48:37.799Z,43.29
2022-08-31T14:51:06.484Z,43.09
2022-08-31T14:53:37.669Z,43.58
2022-08-31T14:56:07.076Z,44.57
2022-08-31T14:58:34.228Z,42.75
2022-08-31T15:01:01.530Z,45.58
2022-08-31T15:03:33.973Z,47.42
2022-08-31T15:06:03.309Z,48.81
2022-08-31T15:08:37.990Z,47.85
2022-08-31T15:11:06.132Z,48.62
2022-08-31T15:13:33.951Z,48.20
2022-08-31T15:16:03.898Z,51.23
2022-08-31T15:18:33.711Z,52.45
2022-08-31T15:21:02.215Z,52.57
2022-08-31T15:23:30.812Z,54.41
2022-08-31T15:26:12.651Z,54.18
2022-08-31T15:28:41.971Z,53.67
2022-08-31T15:31:28.898Z,54.00
2022-08-31T15:33:56.024Z,52.94
2022-08-31T15:36:24.999Z,51.69
2022-08-31T15:38:57.184Z,49.84
2022-08-31T15:41:26.832Z,49.58
2022-08-31T15:43:53.425Z,49.91
2022-08-31T15:46:40.192Z,51.50
2022-08-31T15:49:07.756Z,50.08
2022-08-31T15:51:35.218Z,50.34
2022-08-31T15:54:21.173Z,51.59
2022-08-31T15:56:49.162Z,51.28
2022-08-31T15:59:15.969Z,50.25
2022-08-31T16:01:42.867Z,49.39
2022-08-31T16:04:16.238Z,50.15
2022-08-31T16:06:43.110Z,48.97
2022-08-31T16:09:10.441Z,48.52
2022-08-31T16:11:37.904Z,48.77
2022-08-31T16:14:05.695Z,48.17
2022-08-31T16:16:35.592Z,47.58
2022-08-31T16:19:04.345Z,48.78
2022-08-31T16:21:35.743Z,48.90
2022-08-31T16:24:04.621Z,48.16
2022-08-31T16:26:35.175Z,48.50
2022-08-31T16:29:02.917Z,48.84
2022-08-31T16:31:30.416Z,50.20
2022-08-31T16:33:57.345Z,49.58
2022-08-31T16:36:25.544Z,49.46
2022-08-31T16:38:56.897Z,48.20
2022-08-31T16:41:26.420Z,43.80
2022-08-31T16:44:18.948Z,41.14
2022-08-31T16:46:45.669Z,42.00
2022-08-31T16:49:31.051Z,41.99
2022-08-31T16:51:58.413Z,42.70
2022-08-31T16:54:28.494Z,42.10
2022-08-31T16:56:57.697Z,43.17
2022-08-31T16:59:29.074Z,43.49
2022-08-31T17:01:56.277Z,44.41
2022-08-31T17:04:50.521Z,43.29
2022-08-31T17:07:12.965Z,43.42
2022-08-31T17:09:40.645Z,44.97
2022-08-31T17:12:12.307Z,47.37
2022-08-31T17:14:46.774Z,48.89
2022-08-31T17:17:16.467Z,49.27
2022-08-31T17:19:45.001Z,50.30
2022-08-31T17:22:21.378Z,51.18
2022-08-31T17:24:49.477Z,52.23
2022-08-31T17:27:19.798Z,53.14
2022-08-31T17:29:48.410Z,52.61
2022-08-31T17:32:18.962Z,53.72
2022-08-31T17:34:49.563Z,54.11
2022-08-31T17:37:16.569Z,54.25
2022-08-31T17:39:44.701Z,53.66
2022-08-31T17:42:15.148Z,54.50
2022-08-31T17:44:44.858Z,54.68
2022-08-31T17:47:11.821Z,56.60
2022-08-31T17:49:43.226Z,56.73
2022-08-31T17:52:12.735Z,55.94
2022-08-31T17:54:42.857Z,56.00
2022-08-31T17:57:13.325Z,56.36
2022-08-31T17:59:42.590Z,56.54
2022-08-31T18:02:15.117Z,57.20
2022-08-31T18:04:41.948Z,57.35
2022-08-31T18:07:09.506Z,57.61
2022-08-31T18:09:40.558Z,58.76
2022-08-31T18:12:08.094Z,59.87
2022-08-31T18:14:37.738Z,60.33
2022-08-31T18:17:06.273Z,60.38
2022-08-31T18:19:33.573Z,60.22
2022-08-31T18:22:01.005Z,59.79
2022-08-31T18:24:28.397Z,60.40
2022-08-31T18:26:56.775Z,60.40
2022-08-31T18:29:24.888Z,60.62
2022-08-31T18:31:54.422Z,61.68
2022-08-31T18:34:23.804Z,61.39
2022-08-31T18:36:53.284Z,61.52
2022-08-31T18:39:47.651Z,61.10
2022-08-31T18:42:28.471Z,61.36
2022-08-31T18:45:13.689Z,61.33
2022-08-31T18:47:40.352Z,61.62
2022-08-31T18:50:07.864Z,61.94
2022-08-31T18:52:40.292Z,62.08
2022-08-31T18:55:15.590Z,61.90
2022-08-31T18:57:49.121Z,61.76
2022-08-31T19:00:16.593Z,62.02
2022-08-31T19:02:43.910Z,61.97
2022-08-31T19:05:12.289Z,61.95
2022-08-31T19:07:40.710Z,62.56
2022-08-31T19:10:12.907Z,62.75
2022-08-31T19:12:40.997Z,62.84
2022-08-31T19:15:10.145Z,62.76
2022-08-31T19:17:38.913Z,63.11
2022-08-31T19:20:10.218Z,63.69
2022-08-31T19:22:37.835Z,63.36
2022-08-31T19:25:05.387Z,63.46
2022-08-31T19:27:33.145Z,63.59
2022-08-31T19:29:59.906Z,63.79
2022-08-31T19:32:26.606Z,63.63
2022-08-31T19:34:53.453Z,63.93
2022-08-31T19:37:20.161Z,64.20
2022-08-31T19:39:46.856Z,64.54
2022-08-31T19:42:15.261Z,64.58
2022-08-31T19:47:31.600Z,65.04
2022-08-31T19:49:59.237Z,65.27
2022-08-31T19:52:25.837Z,64.77
2022-08-31T19:54:52.980Z,64.76
2022-08-31T19:57:21.477Z,64.48
2022-08-31T19:59:49.913Z,64.49
2022-08-31T20:04:45.387Z,65.19
2022-08-31T20:07:14.458Z,64.79
2022-08-31T20:09:41.148Z,64.65
2022-08-31T20:12:08.411Z,64.89
2022-08-31T20:14:36.004Z,64.90
2022-08-31T20:17:03.126Z,64.82
2022-08-31T20:19:34.832Z,65.75
2022-08-31T20:22:09.533Z,66.45
2022-08-31T20:24:43.980Z,66.77
2022-08-31T20:27:13.067Z,67.12
2022-08-31T20:29:39.893Z,67.12
2022-08-31T20:32:08.042Z,67.60
2022-08-31T20:34:35.201Z,67.66
2022-08-31T20:37:02.629Z,66.99
2022-08-31T20:39:31.372Z,66.86
2022-08-31T20:41:59.270Z,67.05
2022-08-31T20:44:31.680Z,67.07
2022-08-31T20:47:19.726Z,66.97
2022-08-31T20:49:53.497Z,66.91
2022-08-31T20:52:21.384Z,67.18
2022-08-31T20:54:54.325Z,67.61
2022-08-31T20:57:29.364Z,68.07
2022-08-31T21:00:03.242Z,67.65
2022-08-31T21:02:31.504Z,67.28
2022-08-31T21:05:10.369Z,67.67
2022-08-31T21:07:45.184Z,67.68
2022-08-31T21:10:11.819Z,69.04
2022-08-31T21:12:38.407Z,68.31
2022-08-31T21:15:10.013Z,68.14
2022-08-31T21:17:36.664Z,67.63
2022-08-31T21:20:05.225Z,67.72
2022-08-31T21:22:31.873Z,67.89
2022-08-31T21:24:59.728Z,67.85
2022-08-31T21:27:29.407Z,67.78
2022-08-31T21:29:56.487Z,67.95
2022-08-31T21:32:23.388Z,67.72
2022-08-31T21:34:49.922Z,67.93
2022-08-31T21:37:16.500Z,67.28
2022-08-31T21:39:43.148Z,67.44
2022-08-31T21:42:09.753Z,67.44
2022-08-31T21:44:37.475Z,67.28
2022-08-31T21:47:04.505Z,67.12
2022-08-31T21:49:34.255Z,67.17
2022-08-31T21:52:01.125Z,67.16
2022-08-31T21:54:28.551Z,66.88
2022-08-31T21:56:56.413Z,66.77
2022-08-31T21:59:25.108Z,66.86
2022-08-31T22:01:59.218Z,66.96
2022-08-31T22:04:28.696Z,67.05
2022-08-31T22:06:55.948Z,66.94
2022-08-31T22:09:23.735Z,66.71
2022-08-31T22:11:53.957Z,67.28
2022-08-31T22:14:26.048Z,67.33
2022-08-31T22:16:55.208Z,66.94
2022-08-31T22:19:25.622Z,66.77
2022-08-31T22:21:54.582Z,66.74
2022-08-31T22:24:27.855Z,66.48
2022-08-31T22:26:57.163Z,66.19
2022-08-31T22:29:27.024Z,66.48
2022-08-31T22:31:56.243Z,66.11
2022-08-31T22:34:24.077Z,66.31
2022-08-31T22:36:52.064Z,66.12
2022-08-31T22:39:21.395Z,66.63
2022-08-31T22:41:48.323Z,66.11
2022-08-31T22:44:17.211Z,66.11
2022-08-31T22:46:44.931Z,66.30
2022-08-31T22:49:11.837Z,66.31
2022-08-31T22:51:40.756Z,66.37
2022-08-31T22:54:08.455Z,66.27
2022-08-31T22:56:35.906Z,66.34
2022-08-31T22:59:05.715Z,66.04
2022-08-31T23:01:34.466Z,66.00
2022-08-31T23:04:06.670Z,66.47
2022-08-31T23:06:35.463Z,66.05
2022-08-31T23:09:04.250Z,66.04
2022-08-31T23:11:30.787Z,66.28
2022-08-31T23:13:58.788Z,66.45
2022-08-31T23:16:46.491Z,66.18
2022-08-31T23:19:16.530Z,66.45
2022-08-31T23:21:56.835Z,67.17
2022-08-31T23:24:34.673Z,66.74
2022-08-31T23:27:04.728Z,66.73
2022-08-31T23:29:52.066Z,67.03
2022-08-31T23:32:21.047Z,66.89
2022-08-31T23:34:50.870Z,66.89
2022-08-31T23:37:18.356Z,67.00
2022-08-31T23:39:46.462Z,67.00
2022-08-31T23:42:16.376Z,66.29
2022-08-31T23:44:44.684Z,66.38
2022-08-31T23:47:16.981Z,67.00
2022-08-31T23:49:45.824Z,67.10
2022-08-31T23:52:18.317Z,67.33
2022-08-31T23:54:45.860Z,67.46
2022-08-31T23:57:31.552Z,67.49
